KFCM/FCM METAR and TAF weather

Enter ICAO airport designator
Station Type Date Time Source
KFCM METAR 2020/07/11 16:53 UTC NOAA

KFCM 111653Z 04004KT 10SM CLR 28/18 A2990 RMK AO2 SLP120 T02830178


Station Type Date Time Source
KFCM Decoded METAR 2020/07/11 16:53 UTC NOAA

Minneapolis, Flying Cloud Airport, MN, United States (KFCM) 44-49-56N 093-28-13W 280M
Jul 11, 2020 - 12:53 PM EDT / 2020.07.11 1653 UTC
Wind: from the NE (040 degrees) at 5 MPH (4 KT):0
Visibility: 10 mile(s):0
Sky conditions: clear
Temperature: 82.9 F (28.3 C)
Dew Point: 64.0 F (17.8 C)
Relative Humidity: 52%
Pressure (altimeter): 29.9 in. Hg (1012 hPa)
ob: KFCM 111653Z 04004KT 10SM CLR 28/18 A2990 RMK AO2 SLP120 T02830178
cycle: 17

Station Type Date Time Source
KFCM TAF 2018/02/05 20:59 UTC NOAA

TAF
AMD KFCM 051959Z 0520/0618 27007KT 6SM -SHSN BKN020 OVC050
TEMPO 0520/0522 SCT020 BKN050
FM052200 27007KT P6SM FEW020 BKN100
FM060100 31007KT P6SM FEW200
FM061000 VRB03KT P6SM FEW250
AMD NOT SKED

Example: see airport list